Time;durP1;ratioP1;P1;durP2;ratioP2;P2;SDS_P1;SDS_P2;PMS_P1;PMS_P2;Temp;Humidity;BMP_temperature;BMP_pressure;BME280_temperature;BME280_humidity;BME280_pressure;Samples;Min_cycle;Max_cycle;Signal;HPM_P1;HPM_P2
2022/10/19 00:01:16;;;;;;;9.00;5.78;;;15.10;60.90;;;;;;5028512;28;20057;-53
2022/10/19 00:03:47;;;;;;;17.77;5.72;;;15.10;60.90;;;;;;5035906;28;20421;-52
2022/10/19 00:06:16;;;;;;;12.38;6.25;;;15.00;60.80;;;;;;5033464;28;20076;-52
2022/10/19 00:08:44;;;;;;;8.10;6.40;;;15.10;60.90;;;;;;5033606;28;20053;-53
2022/10/19 00:11:12;;;;;;;7.18;5.65;;;15.00;60.90;;;;;;5030903;28;20064;-52
2022/10/19 00:13:40;;;;;;;5.28;4.70;;;15.00;60.90;;;;;;5034070;28;20068;-50
2022/10/19 00:16:09;;;;;;;6.75;5.05;;;15.00;61.00;;;;;;5031614;28;20057;-52
2022/10/19 00:18:37;;;;;;;11.93;5.03;;;14.90;60.80;;;;;;5034932;28;20053;-49
2022/10/19 00:21:07;;;;;;;5.65;5.07;;;14.90;60.80;;;;;;5032311;28;20517;-51
2022/10/19 00:23:35;;;;;;;10.57;5.13;;;14.90;60.80;;;;;;5036991;28;20061;-51
2022/10/19 00:26:02;;;;;;;21.33;5.40;;;14.90;60.80;;;;;;5035015;28;20056;-51
2022/10/19 00:28:30;;;;;;;13.90;4.53;;;14.90;60.70;;;;;;5035427;28;20061;-52
2022/10/19 00:31:01;;;;;;;9.55;4.70;;;14.90;60.60;;;;;;5028682;28;20049;-48
2022/10/19 00:33:28;;;;;;;9.20;4.22;;;14.80;60.60;;;;;;5034648;28;20287;-50
2022/10/19 00:35:55;;;;;;;4.50;4.05;;;14.80;60.70;;;;;;5034411;28;20056;-52
2022/10/19 00:38:24;;;;;;;11.85;4.38;;;14.80;60.70;;;;;;5035766;28;20053;-53
2022/10/19 00:40:51;;;;;;;15.27;5.38;;;14.70;60.50;;;;;;5030222;28;20054;-51
2022/10/19 00:43:21;;;;;;;7.13;4.88;;;14.70;60.50;;;;;;5036784;28;20489;-52
2022/10/19 00:45:48;;;;;;;7.38;4.72;;;14.70;60.40;;;;;;5034239;28;20096;-52
2022/10/19 00:48:21;;;;;;;10.38;5.32;;;14.70;60.40;;;;;;5036161;28;20061;-52
2022/10/19 00:50:50;;;;;;;6.78;4.95;;;14.60;60.20;;;;;;5029262;28;20060;-51
2022/10/19 00:53:17;;;;;;;7.03;5.20;;;14.60;60.30;;;;;;5035934;28;20125;-50
2022/10/19 00:55:46;;;;;;;6.55;4.88;;;14.60;60.30;;;;;;5035350;28;20049;-52
2022/10/19 00:58:14;;;;;;;36.92;6.38;;;14.50;60.40;;;;;;5035661;28;20046;-48
2022/10/19 01:00:42;;;;;;;8.48;5.18;;;14.60;60.40;;;;;;5027829;28;20053;-50
2022/10/19 01:03:11;;;;;;;12.85;5.40;;;14.50;60.30;;;;;;5034860;28;20053;-50
2022/10/19 01:05:39;;;;;;;5.90;4.68;;;14.50;60.20;;;;;;5036679;28;20053;-52
2022/10/19 01:08:08;;;;;;;11.90;6.13;;;14.50;60.30;;;;;;5037182;28;20065;-48
2022/10/19 01:10:43;;;;;;;7.88;4.63;;;14.40;60.20;;;;;;5031112;28;20053;-51
2022/10/19 01:13:27;;;;;;;57.22;7.22;;;14.40;60.30;;;;;;5037077;28;20053;-51
2022/10/19 01:16:00;;;;;;;33.20;5.00;;;14.40;60.20;;;;;;5030618;28;20053;-46
2022/10/19 01:18:36;;;;;;;12.43;5.13;;;14.30;59.70;;;;;;5035648;28;20484;-45
2022/10/19 01:21:19;;;;;;;5.95;4.32;;;14.30;59.70;;;;;;5036021;28;20513;-52
2022/10/19 01:24:10;;;;;;;6.53;4.25;;;14.20;59.90;;;;;;5035098;28;20049;-51
2022/10/19 01:27:13;;;;;;;3.80;3.40;;;14.20;60.10;;;;;;5034543;28;20053;-51
2022/10/19 01:29:56;;;;;;;14.40;3.17;;;14.20;60.40;;;;;;5010860;28;20058;-49
2022/10/19 01:32:32;;;;;;;32.70;4.18;;;14.20;60.50;;;;;;5032969;28;20048;-52
2022/10/19 01:35:06;;;;;;;3.20;2.90;;;14.10;60.50;;;;;;5036743;28;20064;-52
2022/10/19 01:37:38;;;;;;;3.05;2.60;;;14.10;60.60;;;;;;5029666;28;20611;-53
2022/10/19 01:40:10;;;;;;;7.43;2.25;;;14.10;60.70;;;;;;5030943;28;20049;-51
2022/10/19 01:42:44;;;;;;;15.80;2.60;;;14.10;60.80;;;;;;5034636;28;20057;-48
2022/10/19 01:45:15;;;;;;;;;;;14.00;60.70;;;;;;5033053;28;20054;-49
2022/10/19 01:47:48;;;;;;;2.22;1.98;;;14.10;60.90;;;;;;5033639;28;19921;-52
2022/10/19 01:50:23;;;;;;;5.78;2.45;;;14.10;60.60;;;;;;5029897;28;20049;-52
2022/10/19 01:52:52;;;;;;;8.52;2.67;;;14.00;60.60;;;;;;5034153;28;20076;-49
2022/10/19 01:55:20;;;;;;;5.55;2.70;;;14.00;60.60;;;;;;5035724;28;20050;-52
2022/10/19 01:57:50;;;;;;;9.38;2.90;;;14.00;60.70;;;;;;5035013;28;20053;-52
2022/10/19 02:00:21;;;;;;;7.35;2.60;;;14.00;60.70;;;;;;5031362;28;20053;-50
2022/10/19 02:02:52;;;;;;;8.10;2.70;;;13.90;60.70;;;;;;5034579;28;20060;-46
2022/10/19 02:05:21;;;;;;;4.88;3.00;;;13.90;60.70;;;;;;5032968;28;20056;-52
2022/10/19 02:07:54;;;;;;;3.58;2.40;;;13.90;60.70;;;;;;5033960;28;20060;-50
2022/10/19 02:10:22;;;;;;;4.05;2.80;;;13.90;60.70;;;;;;5028965;28;20072;-50
2022/10/19 02:12:51;;;;;;;3.78;3.20;;;13.90;60.70;;;;;;5033879;28;20053;-50
2022/10/19 02:15:23;;;;;;;7.28;3.30;;;13.90;60.80;;;;;;5022632;28;20057;-43
2022/10/19 02:17:55;;;;;;;4.38;3.50;;;13.90;60.70;;;;;;5020398;28;21216;-44
2022/10/19 02:20:23;;;;;;;6.53;3.33;;;13.90;60.70;;;;;;5018620;28;20060;-42
2022/10/19 02:22:50;;;;;;;6.43;3.78;;;13.80;60.60;;;;;;5022084;28;20045;-43
2022/10/19 02:25:18;;;;;;;5.28;3.50;;;13.80;60.60;;;;;;5022730;28;20057;-46
2022/10/19 02:27:46;;;;;;;11.73;3.70;;;13.80;60.50;;;;;;5021875;28;20064;-44
2022/10/19 02:30:17;;;;;;;4.97;3.83;;;13.80;60.40;;;;;;5015759;28;20501;-45
2022/10/19 02:32:45;;;;;;;4.05;3.35;;;13.80;60.30;;;;;;5021436;28;20056;-46
2022/10/19 02:35:15;;;;;;;5.78;3.45;;;13.80;60.20;;;;;;5022800;28;20496;-42
2022/10/19 02:37:43;;;;;;;3.92;3.13;;;13.70;60.00;;;;;;5022243;28;20049;-42
2022/10/19 02:40:11;;;;;;;4.68;3.72;;;13.70;60.00;;;;;;5020260;28;20481;-42
2022/10/19 02:42:42;;;;;;;4.05;3.00;;;13.70;59.90;;;;;;5019428;28;20401;-47
2022/10/19 02:45:15;;;;;;;4.30;3.05;;;13.70;59.90;;;;;;5020553;28;20056;-44
2022/10/19 02:47:49;;;;;;;51.70;4.10;;;13.70;59.80;;;;;;5018329;28;20046;-51
2022/10/19 02:50:18;;;;;;;4.15;3.25;;;13.60;59.60;;;;;;5028484;28;20054;-53
2022/10/19 02:52:45;;;;;;;5.00;3.42;;;13.60;59.60;;;;;;5029902;28;20049;-51
2022/10/19 02:55:12;;;;;;;3.92;2.92;;;13.60;59.60;;;;;;5034326;28;20058;-52
2022/10/19 02:57:40;;;;;;;3.42;3.08;;;13.60;59.60;;;;;;5028872;28;20041;-52
2022/10/19 03:00:08;;;;;;;4.63;3.10;;;13.50;59.60;;;;;;5026315;28;20056;-49
2022/10/19 03:05:08;;;;;;;3.17;2.80;;;13.50;59.50;;;;;;4950377;28;20063;-50
2022/10/19 03:07:35;;;;;;;4.10;2.75;;;13.40;59.40;;;;;;4948189;29;20051;-51
2022/10/19 03:10:03;;;;;;;3.15;2.80;;;13.40;59.50;;;;;;4950803;29;20058;-50
2022/10/19 03:12:30;;;;;;;4.45;2.63;;;13.40;59.40;;;;;;4951736;29;20067;-50
2022/10/19 03:14:57;;;;;;;4.13;2.90;;;13.40;59.50;;;;;;4951822;29;20059;-53
2022/10/19 03:17:24;;;;;;;3.75;2.90;;;13.30;59.40;;;;;;4942792;29;20062;-49
2022/10/19 03:19:51;;;;;;;4.75;3.13;;;13.30;59.40;;;;;;4951122;29;20065;-52
2022/10/19 03:22:20;;;;;;;5.00;3.60;;;13.30;59.40;;;;;;4944577;29;20085;-50
2022/10/19 03:24:47;;;;;;;4.65;4.00;;;13.20;59.40;;;;;;4946921;29;20058;-52
2022/10/19 03:27:14;;;;;;;4.93;3.80;;;13.20;59.40;;;;;;4951529;28;20059;-50
2022/10/19 03:29:41;;;;;;;7.00;4.25;;;13.20;59.40;;;;;;4948804;28;20062;-51
2022/10/19 03:32:09;;;;;;;5.97;3.85;;;13.10;59.40;;;;;;4953568;28;20058;-51
2022/10/19 03:34:36;;;;;;;6.68;4.07;;;13.10;59.40;;;;;;4953567;29;20062;-51
2022/10/19 03:37:03;;;;;;;4.47;3.63;;;13.10;59.40;;;;;;4953274;28;20055;-50
2022/10/19 03:39:32;;;;;;;4.72;3.50;;;13.10;59.40;;;;;;4952289;28;20062;-51
2022/10/19 03:41:59;;;;;;;4.40;3.78;;;13.00;59.40;;;;;;4954040;28;20693;-49
2022/10/19 03:44:26;;;;;;;4.05;3.45;;;13.10;59.50;;;;;;4952160;29;20063;-51
2022/10/19 03:46:53;;;;;;;5.43;3.15;;;13.00;59.40;;;;;;4950637;29;20491;-51
2022/10/19 03:49:21;;;;;;;8.07;3.30;;;13.00;59.40;;;;;;4955231;29;20063;-50
2022/10/19 03:51:48;;;;;;;4.20;3.03;;;12.90;59.40;;;;;;4953986;29;20070;-47
2022/10/19 03:54:17;;;;;;;4.10;3.30;;;12.90;59.50;;;;;;4952620;29;20059;-46
2022/10/19 03:56:45;;;;;;;10.48;3.50;;;12.90;59.50;;;;;;4950962;29;20062;-51
2022/10/19 03:59:14;;;;;;;4.07;3.22;;;12.90;60.00;;;;;;4952527;29;20051;-49
2022/10/19 04:01:44;;;;;;;4.57;2.90;;;12.80;59.40;;;;;;4951090;28;20051;-51
2022/10/19 04:04:13;;;;;;;6.35;3.10;;;12.80;59.50;;;;;;4978325;28;20066;-52
2022/10/19 04:06:42;;;;;;;11.88;3.08;;;12.80;59.50;;;;;;4990757;28;20069;-50
2022/10/19 04:09:12;;;;;;;2.85;2.45;;;12.80;59.50;;;;;;4967276;28;20046;-47
2022/10/19 04:11:39;;;;;;;3.05;2.50;;;12.70;59.50;;;;;;4990332;28;20330;-52
2022/10/19 04:14:08;;;;;;;2.50;2.30;;;12.70;59.50;;;;;;4991392;28;20073;-51
2022/10/19 04:16:36;;;;;;;2.92;2.55;;;12.70;59.50;;;;;;4989447;28;20058;-52
2022/10/19 04:19:03;;;;;;;2.83;2.33;;;12.70;59.50;;;;;;4992380;28;20054;-52
2022/10/19 04:21:32;;;;;;;2.90;2.08;;;12.70;59.50;;;;;;4990824;28;20062;-50
2022/10/19 04:24:01;;;;;;;4.72;2.42;;;12.60;59.40;;;;;;4990699;28;20054;-51
2022/10/19 04:26:29;;;;;;;2.60;2.22;;;12.70;59.40;;;;;;4992652;28;20231;-49
2022/10/19 04:28:57;;;;;;;2.92;2.50;;;12.60;59.40;;;;;;4990692;28;20060;-47
2022/10/19 04:31:26;;;;;;;4.28;3.03;;;12.60;59.40;;;;;;4988574;28;20053;-50
2022/10/19 04:33:53;;;;;;;3.97;2.78;;;12.60;59.40;;;;;;4988032;28;20057;-52
2022/10/19 04:36:21;;;;;;;2.72;2.42;;;12.60;59.40;;;;;;4990778;28;20065;-48
2022/10/19 04:38:48;;;;;;;4.88;3.00;;;12.60;59.40;;;;;;4988573;28;20049;-51
2022/10/19 04:41:18;;;;;;;2.97;2.58;;;12.50;59.40;;;;;;4987663;28;20061;-50
2022/10/19 04:43:46;;;;;;;29.08;15.70;;;12.50;59.40;;;;;;4987529;28;20054;-49
2022/10/19 04:46:15;;;;;;;34.63;17.83;;;12.50;59.40;;;;;;4988515;28;20803;-49
2022/10/19 04:48:44;;;;;;;15.82;6.95;;;12.50;59.40;;;;;;4987859;28;20054;-45
2022/10/19 04:51:13;;;;;;;4.80;3.40;;;12.40;59.40;;;;;;4989907;28;20070;-53
2022/10/19 04:53:41;;;;;;;9.68;3.30;;;12.40;59.50;;;;;;4987020;28;20054;-48
2022/10/19 04:56:12;;;;;;;4.53;2.65;;;12.40;59.50;;;;;;4988268;28;20643;-53
2022/10/19 04:58:39;;;;;;;2.90;2.22;;;12.40;59.60;;;;;;4988371;28;20411;-48
2022/10/19 05:01:10;;;;;;;23.92;10.55;;;12.40;59.60;;;;;;4987326;28;20073;-51
2022/10/19 05:03:38;;;;;;;71.30;29.88;;;12.40;59.60;;;;;;4990257;28;20057;-52
2022/10/19 05:06:08;;;;;;;23.25;12.55;;;12.30;59.60;;;;;;4969991;28;20080;-53
2022/10/19 05:08:35;;;;;;;22.80;5.15;;;12.30;59.60;;;;;;4987871;28;20065;-49
2022/10/19 05:11:03;;;;;;;5.93;3.30;;;12.30;59.60;;;;;;4986085;28;21307;-52
2022/10/19 05:13:58;;;;;;;4.20;2.72;;;12.30;59.60;;;;;;4989372;28;20066;-49
2022/10/19 05:16:26;;;;;;;3.78;2.80;;;12.30;59.60;;;;;;4985255;28;20516;-47
2022/10/19 05:18:57;;;;;;;9.80;5.72;;;12.30;59.60;;;;;;4987859;28;20042;-52
2022/10/19 05:21:54;;;;;;;16.38;9.80;;;12.30;59.60;;;;;;4993737;28;20058;-51
2022/10/19 05:25:02;;;;;;;7.25;4.60;;;12.20;59.60;;;;;;4992179;28;20054;-50
2022/10/19 05:27:53;;;;;;;5.43;3.67;;;12.20;59.60;;;;;;4913382;29;20429;-50
2022/10/19 05:30:31;;;;;;;4.95;2.90;;;12.20;59.60;;;;;;4987806;28;20066;-46
2022/10/19 05:33:16;;;;;;;2.30;2.10;;;12.20;59.60;;;;;;4993711;28;20051;-49
2022/10/19 05:35:44;;;;;;;2.58;2.08;;;12.20;59.60;;;;;;4986265;28;20050;-51
2022/10/19 05:38:28;;;;;;;2.67;2.33;;;12.20;59.70;;;;;;4993631;28;20054;-49
2022/10/19 05:41:14;;;;;;;2.47;1.98;;;12.20;59.70;;;;;;4989642;28;20054;-51
2022/10/19 05:50:20;;;;;;;2.38;1.92;;;12.10;59.70;;;;;;4985420;28;20081;-47
2022/10/19 05:52:55;;;;;;;2.65;2.38;;;12.10;59.70;;;;;;4990917;28;20058;-52
2022/10/19 05:58:30;;;;;;;3.70;2.53;;;12.10;59.90;;;;;;4934587;28;20070;-50
2022/10/19 06:00:59;;;;;;;3.13;2.70;;;12.10;59.90;;;;;;4965953;28;20061;-46
2022/10/19 06:03:27;;;;;;;3.38;2.65;;;12.10;59.90;;;;;;4982374;23;20068;-53
2022/10/19 06:05:55;;;;;;;6.97;2.78;;;12.00;60.00;;;;;;5013069;28;20053;-53
2022/10/19 06:08:23;;;;;;;3.03;2.63;;;12.10;60.10;;;;;;5020315;28;20045;-50
2022/10/19 06:10:52;;;;;;;3.03;2.45;;;12.00;60.00;;;;;;5020074;28;20050;-51
2022/10/19 06:13:20;;;;;;;3.17;2.55;;;12.00;60.10;;;;;;5026093;28;20507;-48
2022/10/19 06:15:51;;;;;;;7.65;2.70;;;12.00;60.20;;;;;;5018427;28;20054;-51
2022/10/19 06:18:18;;;;;;;4.13;2.70;;;12.00;60.30;;;;;;5029483;28;20061;-52
2022/10/19 06:20:45;;;;;;;4.82;3.17;;;12.00;60.30;;;;;;5017263;28;20050;-53
2022/10/19 06:23:12;;;;;;;3.20;2.75;;;12.00;60.40;;;;;;5012506;28;20053;-51
2022/10/19 06:25:40;;;;;;;10.23;3.67;;;12.00;60.50;;;;;;5012103;28;20061;-49
2022/10/19 06:28:09;;;;;;;12.82;3.78;;;12.00;60.60;;;;;;5011387;28;20128;-48
2022/10/19 06:30:39;;;;;;;5.78;3.40;;;12.00;60.60;;;;;;5010983;28;20060;-46
2022/10/19 06:33:06;;;;;;;8.40;3.85;;;12.00;60.60;;;;;;5002639;28;20053;-51
2022/10/19 06:35:34;;;;;;;4.93;3.38;;;12.00;60.70;;;;;;5003195;28;20057;-52
2022/10/19 06:38:01;;;;;;;5.93;4.10;;;12.00;60.80;;;;;;5002593;28;20058;-53
2022/10/19 06:40:28;;;;;;;6.10;3.70;;;12.00;60.80;;;;;;5001352;28;20053;-52
2022/10/19 06:42:57;;;;;;;5.50;3.50;;;12.00;60.90;;;;;;5004160;28;20400;-50
2022/10/19 06:45:26;;;;;;;6.72;3.58;;;12.00;61.00;;;;;;4998927;28;20054;-52
2022/10/19 06:47:53;;;;;;;8.07;3.90;;;12.00;60.90;;;;;;5008329;28;20052;-52
2022/10/19 06:50:20;;;;;;;9.55;3.55;;;12.00;60.90;;;;;;5001384;28;20057;-52
2022/10/19 06:52:47;;;;;;;5.65;3.33;;;12.00;61.00;;;;;;5006074;28;20072;-50
2022/10/19 06:55:16;;;;;;;4.82;3.22;;;12.00;61.00;;;;;;5002848;28;20053;-52
2022/10/19 06:57:44;;;;;;;4.43;3.20;;;12.00;61.10;;;;;;5011998;28;20567;-50
2022/10/19 07:00:12;;;;;;;4.68;3.20;;;12.00;61.10;;;;;;4997032;28;20060;-51
2022/10/19 07:02:41;;;;;;;7.22;3.22;;;12.00;61.20;;;;;;5020521;23;20062;-48
2022/10/19 07:05:09;;;;;;;7.32;3.20;;;12.00;61.20;;;;;;4964021;28;20053;-48
2022/10/19 07:07:36;;;;;;;5.65;3.90;;;12.10;61.40;;;;;;4965779;28;20050;-45
2022/10/19 07:10:04;;;;;;;4.15;3.10;;;12.10;61.40;;;;;;4957505;28;20058;-47
2022/10/19 07:12:31;;;;;;;3.90;2.70;;;12.10;61.40;;;;;;4964369;28;20054;-53
2022/10/19 07:14:58;;;;;;;8.25;2.78;;;12.10;61.50;;;;;;4962221;28;20054;-46
2022/10/19 07:17:26;;;;;;;2.55;2.35;;;12.10;61.50;;;;;;4966950;28;20514;-51
2022/10/19 07:19:57;;;;;;;3.08;2.58;;;12.10;61.40;;;;;;4969368;28;20062;-50
2022/10/19 07:22:27;;;;;;;18.50;3.03;;;12.10;61.50;;;;;;4974200;28;20061;-52
2022/10/19 07:24:54;;;;;;;3.60;2.17;;;12.10;61.40;;;;;;4963811;28;20062;-51
2022/10/19 07:27:22;;;;;;;19.45;3.15;;;12.10;61.40;;;;;;4963949;28;20069;-46
2022/10/19 07:29:49;;;;;;;3.13;2.70;;;12.20;61.40;;;;;;4971594;28;20062;-51
2022/10/19 07:32:16;;;;;;;3.72;2.97;;;12.10;61.30;;;;;;4970006;28;20059;-50
2022/10/19 07:34:43;;;;;;;2.55;2.33;;;12.10;61.40;;;;;;4974195;28;20057;-52
2022/10/19 07:37:12;;;;;;;4.75;3.20;;;12.10;61.40;;;;;;4970243;28;20063;-52
2022/10/19 07:39:39;;;;;;;3.40;2.80;;;12.20;61.60;;;;;;4960018;28;20059;-47
2022/10/19 07:42:06;;;;;;;3.75;3.00;;;12.20;61.70;;;;;;4953523;28;20082;-46
2022/10/19 07:44:33;;;;;;;6.25;2.97;;;12.20;61.70;;;;;;4970215;28;20054;-51
2022/10/19 07:47:00;;;;;;;23.52;9.95;;;12.20;61.80;;;;;;4967018;28;20498;-51
2022/10/19 07:49:28;;;;;;;23.05;9.38;;;12.20;61.90;;;;;;4970280;28;20058;-48
2022/10/19 07:51:55;;;;;;;7.93;4.68;;;12.20;61.90;;;;;;4965025;28;20496;-47
2022/10/19 07:54:26;;;;;;;8.90;3.60;;;12.20;61.90;;;;;;4966327;28;20051;-50
2022/10/19 07:56:53;;;;;;;4.57;2.95;;;12.20;62.00;;;;;;4966010;28;20046;-52
2022/10/19 07:59:20;;;;;;;4.07;3.00;;;12.30;62.10;;;;;;4952168;28;20055;-52
2022/10/19 08:01:48;;;;;;;3.47;2.80;;;12.30;62.10;;;;;;4955077;28;20051;-51
2022/10/19 08:04:17;;;;;;;5.05;2.90;;;12.30;62.20;;;;;;4995818;23;20069;-52
2022/10/19 08:06:44;;;;;;;3.65;2.83;;;12.30;62.20;;;;;;4998110;28;20053;-47
2022/10/19 08:09:11;;;;;;;4.15;2.97;;;12.30;62.30;;;;;;4990310;28;20058;-50
2022/10/19 08:11:40;;;;;;;4.82;3.40;;;12.30;62.40;;;;;;5012125;28;20054;-49
2022/10/19 08:14:07;;;;;;;3.55;3.08;;;12.40;62.50;;;;;;5010095;28;20440;-50
2022/10/19 08:16:38;;;;;;;5.32;3.20;;;12.40;62.60;;;;;;5008115;28;20481;-51
2022/10/19 08:19:07;;;;;;;4.72;3.38;;;12.40;62.70;;;;;;5001743;28;20058;-50
2022/10/19 08:21:35;;;;;;;4.50;3.33;;;12.50;62.80;;;;;;5008957;28;20054;-51
2022/10/19 08:24:02;;;;;;;7.18;3.35;;;12.50;63.60;;;;;;5013840;28;20053;-51
2022/10/19 08:26:32;;;;;;;5.40;3.20;;;12.50;62.90;;;;;;5015541;28;20069;-51
2022/10/19 08:29:01;;;;;;;4.90;3.50;;;12.50;63.00;;;;;;5010613;28;20458;-52
2022/10/19 08:31:29;;;;;;;7.80;3.92;;;12.60;63.00;;;;;;5001128;28;20410;-51
2022/10/19 08:33:56;;;;;;;5.50;3.85;;;12.60;63.00;;;;;;5011033;28;20053;-51
2022/10/19 08:36:24;;;;;;;5.03;3.97;;;12.60;63.00;;;;;;5007194;28;20360;-51
2022/10/19 08:38:52;;;;;;;4.50;3.33;;;12.70;63.10;;;;;;5010641;28;20053;-52
2022/10/19 08:41:25;;;;;;;6.53;3.72;;;12.70;63.10;;;;;;5009685;28;20049;-50
2022/10/19 08:44:29;;;;;;;5.25;3.60;;;12.70;63.20;;;;;;5002886;28;20050;-50
2022/10/19 08:47:05;;;;;;;6.50;3.42;;;12.80;63.40;;;;;;5010693;28;20425;-51
2022/10/19 08:49:33;;;;;;;11.27;3.78;;;12.80;63.40;;;;;;5008866;28;20046;-49
2022/10/19 08:52:04;;;;;;;7.20;4.53;;;12.80;63.40;;;;;;5011711;28;20065;-51
2022/10/19 08:54:39;;;;;;;5.68;4.18;;;12.80;63.60;;;;;;5012708;28;20058;-52
2022/10/19 08:57:18;;;;;;;5.88;4.32;;;12.80;63.80;;;;;;5016647;28;20064;-48
2022/10/19 08:59:54;;;;;;;6.47;4.22;;;12.90;64.00;;;;;;5014539;28;20060;-52
2022/10/19 09:05:06;;;;;;;5.10;3.83;;;13.00;64.40;;;;;;5011029;23;20545;-45
2022/10/19 09:07:43;;;;;;;8.20;4.68;;;13.10;64.50;;;;;;5009206;28;20056;-45
2022/10/19 09:10:19;;;;;;;7.20;5.10;;;13.10;64.80;;;;;;5003010;28;20073;-48
2022/10/19 09:12:50;;;;;;;7.85;4.90;;;13.10;64.90;;;;;;5028742;28;20517;-50
2022/10/19 09:15:25;;;;;;;9.10;5.40;;;13.20;65.00;;;;;;5021640;28;20064;-52
2022/10/19 09:17:52;;;;;;;6.78;4.82;;;13.20;65.10;;;;;;5027379;28;20057;-52
2022/10/19 09:20:21;;;;;;;8.05;4.85;;;13.30;65.10;;;;;;5029858;28;20068;-51
2022/10/19 09:22:57;;;;;;;7.75;5.30;;;13.40;65.20;;;;;;5028071;28;20053;-45
2022/10/19 09:25:28;;;;;;;6.43;4.97;;;13.40;65.30;;;;;;5018100;28;20045;-48
2022/10/19 09:28:06;;;;;;;8.70;5.00;;;13.40;65.40;;;;;;5016438;28;20053;-50
2022/10/19 09:30:37;;;;;;;8.43;5.00;;;13.50;65.90;;;;;;5023629;28;20068;-52
2022/10/19 09:33:06;;;;;;;6.38;4.65;;;13.60;65.90;;;;;;5020470;28;20053;-50
2022/10/19 09:35:38;;;;;;;8.30;5.35;;;13.70;66.00;;;;;;5021286;28;20049;-49
2022/10/19 09:38:06;;;;;;;8.23;4.80;;;13.70;66.00;;;;;;5027355;28;20678;-52
2022/10/19 09:40:35;;;;;;;8.27;5.20;;;13.80;65.90;;;;;;5014092;28;20061;-52
2022/10/19 09:43:18;;;;;;;12.13;5.75;;;13.80;66.00;;;;;;5027998;28;20064;-49
2022/10/19 09:45:51;;;;;;;10.85;5.60;;;13.90;65.90;;;;;;5021889;28;20050;-49
2022/10/19 09:48:27;;;;;;;10.70;5.63;;;13.90;65.90;;;;;;5019394;28;20066;-48
2022/10/19 09:51:00;;;;;;;9.50;5.03;;;14.00;65.90;;;;;;5028717;28;20964;-52
2022/10/19 09:53:28;;;;;;;9.88;5.60;;;14.00;65.70;;;;;;5016930;28;20058;-50
2022/10/19 09:56:03;;;;;;;8.63;5.72;;;14.10;65.80;;;;;;5025806;28;20056;-48
2022/10/19 09:58:30;;;;;;;10.75;5.88;;;14.10;65.90;;;;;;5028632;28;20061;-50
2022/10/19 10:01:00;;;;;;;9.68;5.32;;;14.10;65.80;;;;;;5013965;28;20405;-51
2022/10/19 10:03:30;;;;;;;8.23;5.18;;;14.20;66.10;;;;;;5017856;28;20529;-49
2022/10/19 10:05:59;;;;;;;8.27;4.93;;;14.20;66.10;;;;;;5021173;28;20050;-50
2022/10/19 10:08:29;;;;;;;10.93;6.03;;;14.30;66.20;;;;;;5023366;28;20069;-51
2022/10/19 10:11:06;;;;;;;9.15;5.72;;;14.30;66.40;;;;;;5026120;28;20057;-51
2022/10/19 10:13:38;;;;;;;7.90;5.65;;;14.30;66.60;;;;;;5015571;28;20494;-49
2022/10/19 10:16:09;;;;;;;12.88;5.93;;;14.40;66.70;;;;;;5027324;28;20053;-52
2022/10/19 10:18:44;;;;;;;10.48;5.82;;;14.40;66.70;;;;;;5023609;28;20080;-53
2022/10/19 10:21:14;;;;;;;9.77;5.40;;;14.50;66.80;;;;;;5013778;28;20485;-46
2022/10/19 10:23:41;;;;;;;14.52;5.78;;;14.60;66.90;;;;;;5004361;28;20497;-49
2022/10/19 10:26:18;;;;;;;11.48;5.55;;;14.60;66.90;;;;;;5016519;28;20057;-49
2022/10/19 10:28:50;;;;;;;14.75;5.50;;;14.70;66.90;;;;;;5007493;28;20057;-49
2022/10/19 10:31:23;;;;;;;9.88;5.45;;;14.70;66.80;;;;;;4999205;28;20053;-48
2022/10/19 10:34:00;;;;;;;10.82;6.60;;;14.70;66.80;;;;;;5010287;28;20517;-52
2022/10/19 10:36:29;;;;;;;11.68;6.18;;;14.80;67.10;;;;;;5022907;28;20060;-52
2022/10/19 10:39:03;;;;;;;9.27;5.40;;;14.90;67.10;;;;;;5019038;28;20065;-49
2022/10/19 10:41:36;;;;;;;7.80;5.25;;;14.90;67.20;;;;;;5019402;28;20049;-52
2022/10/19 10:44:08;;;;;;;8.70;5.47;;;15.00;67.30;;;;;;5032242;28;20061;-51
2022/10/19 10:46:43;;;;;;;10.30;5.43;;;15.00;67.30;;;;;;5028891;28;20050;-51
2022/10/19 10:49:19;;;;;;;10.55;5.05;;;15.10;67.40;;;;;;5034998;28;20076;-51
2022/10/19 10:51:50;;;;;;;8.10;5.25;;;15.10;67.50;;;;;;5023711;28;20490;-52
2022/10/19 10:54:19;;;;;;;9.70;5.82;;;15.20;67.40;;;;;;5024960;28;20413;-53
2022/10/19 10:57:02;;;;;;;10.05;5.15;;;15.20;67.30;;;;;;5019552;28;20049;-49
2022/10/19 10:59:33;;;;;;;12.57;5.75;;;15.20;67.30;;;;;;5003342;28;20053;-51
2022/10/19 11:02:10;;;;;;;10.60;5.72;;;15.30;67.30;;;;;;5010611;28;20053;-50
2022/10/19 11:04:39;;;;;;;12.32;5.90;;;15.40;67.30;;;;;;5018530;28;21602;-51
2022/10/19 11:07:16;;;;;;;12.10;5.45;;;15.40;67.20;;;;;;5008164;28;20080;-50
2022/10/19 11:09:48;;;;;;;8.48;5.40;;;15.50;67.10;;;;;;5022909;28;20050;-50
2022/10/19 11:12:19;;;;;;;9.57;5.68;;;15.60;66.90;;;;;;5021950;28;20054;-50
2022/10/19 11:14:49;;;;;;;8.95;5.22;;;15.60;66.70;;;;;;5013853;28;20049;-46
2022/10/19 11:17:21;;;;;;;10.93;5.70;;;15.60;66.60;;;;;;5002870;28;20049;-50
2022/10/19 11:19:50;;;;;;;12.18;5.10;;;15.70;66.50;;;;;;5014456;28;20057;-49
2022/10/19 11:22:25;;;;;;;8.93;4.90;;;15.70;66.40;;;;;;5014823;28;20045;-51
2022/10/19 11:25:16;;;;;;;11.02;5.05;;;15.80;66.30;;;;;;5009432;28;20068;-47
2022/10/19 11:27:54;;;;;;;6.30;4.20;;;15.80;66.20;;;;;;5017766;28;20060;-50
2022/10/19 11:30:24;;;;;;;11.63;5.32;;;15.90;66.20;;;;;;5003730;28;20057;-47
2022/10/19 11:33:01;;;;;;;10.30;5.00;;;15.90;66.10;;;;;;5019655;28;20052;-49
2022/10/19 11:35:39;;;;;;;9.82;5.65;;;16.00;66.20;;;;;;5021644;28;20073;-52
2022/10/19 11:38:21;;;;;;;11.52;4.63;;;16.00;66.00;;;;;;5013280;28;20049;-51
2022/10/19 11:40:55;;;;;;;8.95;4.40;;;16.00;65.90;;;;;;5011154;28;20112;-49
2022/10/19 11:43:30;;;;;;;10.77;4.50;;;16.10;65.80;;;;;;5010566;28;20497;-51
2022/10/19 11:46:03;;;;;;;12.02;5.70;;;16.10;66.40;;;;;;5005232;28;20073;-51
2022/10/19 11:48:49;;;;;;;10.88;4.00;;;16.20;65.90;;;;;;5010923;28;20049;-49
2022/10/19 11:51:26;;;;;;;7.72;3.83;;;16.20;65.90;;;;;;5009881;28;20065;-48
2022/10/19 11:54:07;;;;;;;9.85;4.05;;;16.30;65.80;;;;;;5017120;28;20080;-49
2022/10/19 11:56:39;;;;;;;8.90;3.80;;;16.30;65.40;;;;;;5011294;28;20551;-51
2022/10/19 11:59:17;;;;;;;10.23;3.78;;;16.40;65.30;;;;;;5012514;28;20069;-49
2022/10/19 12:01:54;;;;;;;9.20;3.38;;;16.50;65.10;;;;;;5000594;28;20486;-50
2022/10/19 12:04:37;;;;;;;9.30;3.90;;;16.50;64.80;;;;;;5008670;28;20762;-51
2022/10/19 12:07:16;;;;;;;7.90;3.60;;;16.50;64.60;;;;;;5013062;28;20418;-49
2022/10/19 12:09:54;;;;;;;8.38;3.45;;;16.60;64.60;;;;;;5013144;28;20064;-49
2022/10/19 12:12:29;;;;;;;14.30;3.88;;;16.60;64.50;;;;;;5012639;28;20053;-49
2022/10/19 12:15:05;;;;;;;9.25;4.25;;;16.60;64.50;;;;;;5015441;28;20064;-50
2022/10/19 12:17:37;;;;;;;10.70;3.42;;;16.70;64.40;;;;;;5012795;28;20053;-48
2022/10/19 12:20:15;;;;;;;9.82;4.20;;;16.70;64.20;;;;;;5011981;28;20061;-51
2022/10/19 12:22:43;;;;;;;8.15;3.72;;;16.80;64.20;;;;;;5008922;28;20612;-48
2022/10/19 12:25:14;;;;;;;9.10;3.88;;;16.80;64.30;;;;;;5010325;28;20053;-51
2022/10/19 12:27:44;;;;;;;8.18;3.63;;;16.80;64.00;;;;;;5020584;28;20057;-48
2022/10/19 12:30:15;;;;;;;9.07;4.00;;;16.90;63.90;;;;;;5014804;28;20520;-44
2022/10/19 12:32:51;;;;;;;12.30;4.97;;;16.90;63.60;;;;;;5014020;28;20050;-50
2022/10/19 12:35:34;;;;;;;11.05;4.10;;;16.90;63.40;;;;;;5006566;28;20508;-47
2022/10/19 12:38:06;;;;;;;7.68;3.88;;;17.00;63.40;;;;;;5010667;28;20076;-50
2022/10/19 12:40:39;;;;;;;8.18;3.78;;;17.00;63.20;;;;;;5015957;28;20054;-49
2022/10/19 12:43:12;;;;;;;9.73;3.85;;;17.10;63.20;;;;;;5012903;28;20516;-49
2022/10/19 12:45:44;;;;;;;10.27;4.00;;;17.10;63.00;;;;;;5013301;28;20042;-50
2022/10/19 12:48:24;;;;;;;13.00;3.78;;;17.20;62.90;;;;;;5008231;28;20061;-51
2022/10/19 12:51:11;;;;;;;11.25;3.75;;;17.20;62.50;;;;;;5017342;28;20080;-48
2022/10/19 12:53:41;;;;;;;10.25;3.78;;;17.20;62.30;;;;;;5014449;28;20045;-50
2022/10/19 12:56:15;;;;;;;10.85;4.18;;;17.30;62.40;;;;;;5019447;28;20061;-47
2022/10/19 12:58:50;;;;;;;8.37;3.60;;;17.30;62.10;;;;;;4998677;28;20060;-50
2022/10/19 13:01:20;;;;;;;6.80;3.45;;;17.40;61.90;;;;;;5011270;28;20064;-51
2022/10/19 13:03:50;;;;;;;8.18;3.70;;;17.40;61.70;;;;;;5013663;28;20057;-52
2022/10/19 13:06:31;;;;;;;9.27;4.00;;;17.40;61.50;;;;;;5015874;28;20474;-50
2022/10/19 13:09:01;;;;;;;11.77;4.70;;;17.40;61.20;;;;;;5010885;28;20394;-49
2022/10/19 13:11:28;;;;;;;13.35;3.38;;;17.50;61.20;;;;;;5010505;28;20497;-48
2022/10/19 13:14:01;;;;;;;8.82;3.38;;;17.50;61.00;;;;;;5021684;28;20628;-46
2022/10/19 13:17:01;;;;;;;5.75;3.25;;;17.60;60.70;;;;;;5014863;28;20057;-51
2022/10/19 13:19:29;;;;;;;11.95;3.60;;;17.60;60.50;;;;;;5016219;28;20061;-49
2022/10/19 13:22:26;;;;;;;7.93;3.50;;;17.60;60.50;;;;;;5015811;28;20053;-49